sensor_id;sensor_type;location;lat;lon;timestamp;P1;durP1;ratioP1;P2;durP2;ratioP2
77136;SDS011;66102;48.542;-2.970;2022-12-18T00:02:16;20.88;;;9.57;;
77136;SDS011;66102;48.542;-2.970;2022-12-18T00:07:08;23.88;;;9.50;;
77136;SDS011;66102;48.542;-2.970;2022-12-18T00:09:34;21.80;;;9.38;;
77136;SDS011;66102;48.542;-2.970;2022-12-18T00:14:26;21.15;;;10.18;;
77136;SDS011;66102;48.542;-2.970;2022-12-18T00:16:52;21.15;;;11.13;;
77136;SDS011;66102;48.542;-2.970;2022-12-18T00:19:18;24.13;;;10.25;;
77136;SDS011;66102;48.542;-2.970;2022-12-18T00:21:45;19.88;;;8.90;;
77136;SDS011;66102;48.542;-2.970;2022-12-18T00:26:37;22.27;;;10.02;;
77136;SDS011;66102;48.542;-2.970;2022-12-18T00:29:05;19.77;;;9.00;;
77136;SDS011;66102;48.542;-2.970;2022-12-18T00:31:31;24.48;;;11.27;;
77136;SDS011;66102;48.542;-2.970;2022-12-18T00:33:57;22.73;;;10.30;;
77136;SDS011;66102;48.542;-2.970;2022-12-18T00:36:27;22.83;;;10.98;;
77136;SDS011;66102;48.542;-2.970;2022-12-18T00:38:54;21.05;;;10.60;;
77136;SDS011;66102;48.542;-2.970;2022-12-18T00:41:20;24.35;;;10.05;;
77136;SDS011;66102;48.542;-2.970;2022-12-18T00:44:06;21.23;;;11.23;;
77136;SDS011;66102;48.542;-2.970;2022-12-18T00:46:33;22.55;;;8.75;;
77136;SDS011;66102;48.542;-2.970;2022-12-18T00:48:59;23.60;;;10.77;;
77136;SDS011;66102;48.542;-2.970;2022-12-18T00:53:51;20.67;;;10.07;;
77136;SDS011;66102;48.542;-2.970;2022-12-18T00:58:46;20.55;;;9.15;;
77136;SDS011;66102;48.542;-2.970;2022-12-18T01:01:12;19.73;;;10.30;;
77136;SDS011;66102;48.542;-2.970;2022-12-18T01:03:38;22.20;;;11.00;;
77136;SDS011;66102;48.542;-2.970;2022-12-18T01:08:30;20.85;;;9.07;;
77136;SDS011;66102;48.542;-2.970;2022-12-18T01:10:56;22.63;;;11.02;;
77136;SDS011;66102;48.542;-2.970;2022-12-18T01:13:22;21.98;;;10.73;;
77136;SDS011;66102;48.542;-2.970;2022-12-18T01:15:49;19.70;;;10.10;;
77136;SDS011;66102;48.542;-2.970;2022-12-18T01:18:15;23.00;;;10.38;;
77136;SDS011;66102;48.542;-2.970;2022-12-18T01:23:07;21.17;;;9.52;;
77136;SDS011;66102;48.542;-2.970;2022-12-18T01:25:35;21.95;;;9.45;;
77136;SDS011;66102;48.542;-2.970;2022-12-18T01:28:01;25.40;;;10.23;;
77136;SDS011;66102;48.542;-2.970;2022-12-18T01:30:27;22.48;;;10.15;;
77136;SDS011;66102;48.542;-2.970;2022-12-18T01:32:53;24.27;;;11.02;;
77136;SDS011;66102;48.542;-2.970;2022-12-18T01:35:19;22.73;;;10.63;;
77136;SDS011;66102;48.542;-2.970;2022-12-18T01:37:45;20.27;;;8.85;;
77136;SDS011;66102;48.542;-2.970;2022-12-18T01:40:11;21.80;;;9.73;;
77136;SDS011;66102;48.542;-2.970;2022-12-18T01:42:38;22.42;;;9.07;;
77136;SDS011;66102;48.542;-2.970;2022-12-18T01:50:25;24.55;;;10.63;;
77136;SDS011;66102;48.542;-2.970;2022-12-18T01:52:53;21.45;;;8.10;;
77136;SDS011;66102;48.542;-2.970;2022-12-18T01:55:22;23.52;;;12.18;;
77136;SDS011;66102;48.542;-2.970;2022-12-18T01:57:49;21.77;;;9.80;;
77136;SDS011;66102;48.542;-2.970;2022-12-18T02:00:17;27.10;;;12.85;;
77136;SDS011;66102;48.542;-2.970;2022-12-18T02:02:44;23.83;;;11.38;;
77136;SDS011;66102;48.542;-2.970;2022-12-18T02:05:11;24.05;;;10.98;;
77136;SDS011;66102;48.542;-2.970;2022-12-18T02:10:34;24.70;;;11.23;;
77136;SDS011;66102;48.542;-2.970;2022-12-18T02:15:51;25.45;;;12.43;;
77136;SDS011;66102;48.542;-2.970;2022-12-18T02:18:24;25.95;;;11.00;;
77136;SDS011;66102;48.542;-2.970;2022-12-18T02:21:26;20.98;;;9.30;;
77136;SDS011;66102;48.542;-2.970;2022-12-18T02:23:52;26.67;;;12.45;;
77136;SDS011;66102;48.542;-2.970;2022-12-18T02:26:26;26.10;;;11.38;;
77136;SDS011;66102;48.542;-2.970;2022-12-18T02:29:03;19.20;;;9.18;;
77136;SDS011;66102;48.542;-2.970;2022-12-18T02:31:31;18.75;;;7.88;;
77136;SDS011;66102;48.542;-2.970;2022-12-18T02:34:01;38.67;;;10.85;;
77136;SDS011;66102;48.542;-2.970;2022-12-18T02:36:28;26.95;;;12.35;;
77136;SDS011;66102;48.542;-2.970;2022-12-18T02:38:55;21.27;;;11.02;;
77136;SDS011;66102;48.542;-2.970;2022-12-18T02:41:22;26.08;;;12.23;;
77136;SDS011;66102;48.542;-2.970;2022-12-18T02:43:49;24.55;;;11.85;;
77136;SDS011;66102;48.542;-2.970;2022-12-18T02:46:27;22.92;;;11.25;;
77136;SDS011;66102;48.542;-2.970;2022-12-18T02:48:55;23.63;;;10.88;;
77136;SDS011;66102;48.542;-2.970;2022-12-18T02:51:24;20.27;;;10.50;;
77136;SDS011;66102;48.542;-2.970;2022-12-18T02:53:58;18.65;;;8.82;;
77136;SDS011;66102;48.542;-2.970;2022-12-18T02:56:28;23.65;;;10.20;;
77136;SDS011;66102;48.542;-2.970;2022-12-18T02:59:00;27.90;;;12.00;;
77136;SDS011;66102;48.542;-2.970;2022-12-18T03:01:33;20.63;;;9.10;;
77136;SDS011;66102;48.542;-2.970;2022-12-18T03:04:04;23.02;;;11.23;;
77136;SDS011;66102;48.542;-2.970;2022-12-18T03:06:38;23.60;;;11.38;;
77136;SDS011;66102;48.542;-2.970;2022-12-18T03:09:10;25.65;;;10.98;;
77136;SDS011;66102;48.542;-2.970;2022-12-18T03:11:39;26.20;;;12.70;;
77136;SDS011;66102;48.542;-2.970;2022-12-18T03:14:24;24.63;;;10.23;;
77136;SDS011;66102;48.542;-2.970;2022-12-18T03:16:53;23.85;;;11.27;;
77136;SDS011;66102;48.542;-2.970;2022-12-18T03:19:21;24.30;;;12.80;;
77136;SDS011;66102;48.542;-2.970;2022-12-18T03:21:52;26.48;;;11.43;;
77136;SDS011;66102;48.542;-2.970;2022-12-18T03:24:19;22.35;;;10.82;;
77136;SDS011;66102;48.542;-2.970;2022-12-18T03:26:46;25.77;;;11.48;;
77136;SDS011;66102;48.542;-2.970;2022-12-18T03:29:15;26.17;;;11.48;;
77136;SDS011;66102;48.542;-2.970;2022-12-18T03:31:45;18.02;;;9.52;;
77136;SDS011;66102;48.542;-2.970;2022-12-18T03:34:14;28.08;;;13.10;;
77136;SDS011;66102;48.542;-2.970;2022-12-18T03:36:43;26.45;;;12.18;;
77136;SDS011;66102;48.542;-2.970;2022-12-18T03:39:09;29.48;;;12.38;;
77136;SDS011;66102;48.542;-2.970;2022-12-18T03:52:20;22.45;;;10.30;;
77136;SDS011;66102;48.542;-2.970;2022-12-18T03:54:50;22.40;;;10.30;;
77136;SDS011;66102;48.542;-2.970;2022-12-18T03:57:18;28.40;;;12.30;;
77136;SDS011;66102;48.542;-2.970;2022-12-18T03:59:45;23.75;;;10.57;;
77136;SDS011;66102;48.542;-2.970;2022-12-18T04:02:13;22.00;;;9.75;;
77136;SDS011;66102;48.542;-2.970;2022-12-18T04:04:41;24.17;;;10.88;;
77136;SDS011;66102;48.542;-2.970;2022-12-18T04:07:07;26.50;;;11.93;;
77136;SDS011;66102;48.542;-2.970;2022-12-18T04:09:34;26.02;;;12.48;;
77136;SDS011;66102;48.542;-2.970;2022-12-18T04:12:01;22.00;;;11.10;;
77136;SDS011;66102;48.542;-2.970;2022-12-18T04:16:53;19.15;;;9.13;;
77136;SDS011;66102;48.542;-2.970;2022-12-18T04:21:45;21.30;;;10.32;;
77136;SDS011;66102;48.542;-2.970;2022-12-18T04:26:37;22.63;;;11.07;;
77136;SDS011;66102;48.542;-2.970;2022-12-18T04:31:29;20.17;;;9.55;;
77136;SDS011;66102;48.542;-2.970;2022-12-18T04:36:21;25.08;;;10.77;;
77136;SDS011;66102;48.542;-2.970;2022-12-18T04:41:13;26.67;;;12.40;;
77136;SDS011;66102;48.542;-2.970;2022-12-18T04:43:39;20.85;;;9.73;;
77136;SDS011;66102;48.542;-2.970;2022-12-18T04:46:06;27.50;;;12.00;;
77136;SDS011;66102;48.542;-2.970;2022-12-18T04:48:32;30.63;;;14.57;;
77136;SDS011;66102;48.542;-2.970;2022-12-18T04:50:58;36.75;;;15.52;;
77136;SDS011;66102;48.542;-2.970;2022-12-18T04:53:24;22.67;;;11.77;;
77136;SDS011;66102;48.542;-2.970;2022-12-18T04:55:50;28.52;;;13.55;;
77136;SDS011;66102;48.542;-2.970;2022-12-18T05:00:42;31.70;;;12.60;;
77136;SDS011;66102;48.542;-2.970;2022-12-18T05:03:08;27.20;;;13.27;;
77136;SDS011;66102;48.542;-2.970;2022-12-18T05:05:35;32.83;;;13.93;;
77136;SDS011;66102;48.542;-2.970;2022-12-18T05:08:01;30.27;;;14.55;;
77136;SDS011;66102;48.542;-2.970;2022-12-18T05:12:53;29.35;;;13.98;;
77136;SDS011;66102;48.542;-2.970;2022-12-18T05:17:50;35.92;;;15.10;;
77136;SDS011;66102;48.542;-2.970;2022-12-18T05:22:43;29.48;;;12.38;;
77136;SDS011;66102;48.542;-2.970;2022-12-18T05:25:09;30.83;;;14.52;;
77136;SDS011;66102;48.542;-2.970;2022-12-18T05:27:35;31.98;;;13.90;;
77136;SDS011;66102;48.542;-2.970;2022-12-18T05:32:27;28.83;;;11.55;;
77136;SDS011;66102;48.542;-2.970;2022-12-18T05:37:19;21.42;;;10.63;;
77136;SDS011;66102;48.542;-2.970;2022-12-18T05:42:11;28.63;;;11.18;;
77136;SDS011;66102;48.542;-2.970;2022-12-18T05:47:03;27.98;;;12.88;;
77136;SDS011;66102;48.542;-2.970;2022-12-18T05:49:29;26.67;;;11.15;;
77136;SDS011;66102;48.542;-2.970;2022-12-18T05:54:21;34.38;;;15.02;;
77136;SDS011;66102;48.542;-2.970;2022-12-18T05:56:47;39.63;;;13.93;;
77136;SDS011;66102;48.542;-2.970;2022-12-18T06:01:39;30.35;;;12.23;;
77136;SDS011;66102;48.542;-2.970;2022-12-18T06:06:31;25.73;;;11.27;;
77136;SDS011;66102;48.542;-2.970;2022-12-18T06:08:57;33.88;;;14.52;;
77136;SDS011;66102;48.542;-2.970;2022-12-18T06:11:25;30.58;;;13.13;;
77136;SDS011;66102;48.542;-2.970;2022-12-18T06:13:55;28.30;;;12.45;;
77136;SDS011;66102;48.542;-2.970;2022-12-18T06:16:21;30.08;;;14.00;;
77136;SDS011;66102;48.542;-2.970;2022-12-18T06:21:13;32.58;;;11.45;;
77136;SDS011;66102;48.542;-2.970;2022-12-18T06:26:06;29.65;;;12.20;;
77136;SDS011;66102;48.542;-2.970;2022-12-18T06:28:32;24.85;;;11.95;;
77136;SDS011;66102;48.542;-2.970;2022-12-18T06:30:58;33.83;;;15.63;;
77136;SDS011;66102;48.542;-2.970;2022-12-18T06:35:50;32.10;;;12.98;;
77136;SDS011;66102;48.542;-2.970;2022-12-18T06:40:42;22.35;;;11.23;;
77136;SDS011;66102;48.542;-2.970;2022-12-18T06:45:34;30.40;;;13.35;;
77136;SDS011;66102;48.542;-2.970;2022-12-18T06:50:26;33.05;;;13.63;;
77136;SDS011;66102;48.542;-2.970;2022-12-18T06:55:18;29.88;;;12.20;;
77136;SDS011;66102;48.542;-2.970;2022-12-18T06:57:44;27.35;;;13.13;;
77136;SDS011;66102;48.542;-2.970;2022-12-18T07:02:36;28.15;;;11.05;;
77136;SDS011;66102;48.542;-2.970;2022-12-18T07:07:28;27.65;;;12.52;;
77136;SDS011;66102;48.542;-2.970;2022-12-18T07:09:54;25.90;;;11.27;;
77136;SDS011;66102;48.542;-2.970;2022-12-18T07:14:46;28.35;;;12.63;;
77136;SDS011;66102;48.542;-2.970;2022-12-18T07:19:38;27.42;;;12.05;;
77136;SDS011;66102;48.542;-2.970;2022-12-18T07:24:30;26.92;;;13.18;;
77136;SDS011;66102;48.542;-2.970;2022-12-18T07:26:58;28.50;;;13.65;;
77136;SDS011;66102;48.542;-2.970;2022-12-18T07:31:50;27.38;;;11.35;;
77136;SDS011;66102;48.542;-2.970;2022-12-18T07:34:16;29.80;;;11.77;;
77136;SDS011;66102;48.542;-2.970;2022-12-18T07:39:10;23.90;;;11.77;;
77136;SDS011;66102;48.542;-2.970;2022-12-18T07:41:36;25.35;;;11.70;;
77136;SDS011;66102;48.542;-2.970;2022-12-18T07:46:28;24.65;;;11.50;;
77136;SDS011;66102;48.542;-2.970;2022-12-18T07:51:20;26.08;;;11.98;;
77136;SDS011;66102;48.542;-2.970;2022-12-18T07:53:46;24.15;;;12.80;;
77136;SDS011;66102;48.542;-2.970;2022-12-18T07:56:12;21.67;;;11.15;;
77136;SDS011;66102;48.542;-2.970;2022-12-18T08:03:30;22.92;;;10.88;;
77136;SDS011;66102;48.542;-2.970;2022-12-18T08:06:03;20.10;;;10.40;;
77136;SDS011;66102;48.542;-2.970;2022-12-18T08:08:30;19.05;;;9.93;;
77136;SDS011;66102;48.542;-2.970;2022-12-18T08:10:56;19.95;;;9.10;;
77136;SDS011;66102;48.542;-2.970;2022-12-18T08:13:23;18.15;;;10.27;;
77136;SDS011;66102;48.542;-2.970;2022-12-18T08:15:56;17.20;;;8.27;;
77136;SDS011;66102;48.542;-2.970;2022-12-18T08:18:23;18.70;;;9.75;;
77136;SDS011;66102;48.542;-2.970;2022-12-18T08:20:49;18.63;;;8.90;;
77136;SDS011;66102;48.542;-2.970;2022-12-18T08:23:15;17.17;;;9.35;;
77136;SDS011;66102;48.542;-2.970;2022-12-18T08:25:41;15.98;;;8.30;;
77136;SDS011;66102;48.542;-2.970;2022-12-18T08:28:07;18.08;;;9.55;;
77136;SDS011;66102;48.542;-2.970;2022-12-18T08:30:33;15.85;;;8.27;;
77136;SDS011;66102;48.542;-2.970;2022-12-18T08:32:59;18.33;;;8.98;;
77136;SDS011;66102;48.542;-2.970;2022-12-18T08:35:25;15.35;;;7.40;;
77136;SDS011;66102;48.542;-2.970;2022-12-18T08:37:52;10.00;;;5.88;;
77136;SDS011;66102;48.542;-2.970;2022-12-18T08:40:18;14.10;;;6.97;;
77136;SDS011;66102;48.542;-2.970;2022-12-18T08:42:44;15.75;;;7.05;;
77136;SDS011;66102;48.542;-2.970;2022-12-18T08:45:28;12.95;;;7.13;;
77136;SDS011;66102;48.542;-2.970;2022-12-18T08:47:54;13.85;;;6.93;;
77136;SDS011;66102;48.542;-2.970;2022-12-18T08:50:20;11.13;;;6.13;;
77136;SDS011;66102;48.542;-2.970;2022-12-18T08:52:47;14.82;;;8.25;;
77136;SDS011;66102;48.542;-2.970;2022-12-18T08:55:13;11.75;;;5.93;;
77136;SDS011;66102;48.542;-2.970;2022-12-18T08:57:39;15.18;;;5.03;;
77136;SDS011;66102;48.542;-2.970;2022-12-18T09:00:05;14.00;;;7.13;;
77136;SDS011;66102;48.542;-2.970;2022-12-18T09:02:31;13.95;;;6.82;;
77136;SDS011;66102;48.542;-2.970;2022-12-18T09:04:57;10.50;;;6.40;;
77136;SDS011;66102;48.542;-2.970;2022-12-18T09:07:23;12.32;;;6.18;;
77136;SDS011;66102;48.542;-2.970;2022-12-18T09:09:49;10.60;;;5.53;;
77136;SDS011;66102;48.542;-2.970;2022-12-18T09:12:15;13.35;;;6.35;;
77136;SDS011;66102;48.542;-2.970;2022-12-18T09:14:41;11.68;;;6.20;;
77136;SDS011;66102;48.542;-2.970;2022-12-18T09:17:07;10.55;;;5.50;;
77136;SDS011;66102;48.542;-2.970;2022-12-18T09:19:34;10.05;;;6.70;;
77136;SDS011;66102;48.542;-2.970;2022-12-18T09:22:00;11.27;;;5.90;;
77136;SDS011;66102;48.542;-2.970;2022-12-18T09:24:26;12.00;;;7.32;;
77136;SDS011;66102;48.542;-2.970;2022-12-18T09:26:53;12.77;;;7.15;;
77136;SDS011;66102;48.542;-2.970;2022-12-18T09:29:20;11.70;;;6.35;;
77136;SDS011;66102;48.542;-2.970;2022-12-18T09:31:46;10.50;;;5.18;;
77136;SDS011;66102;48.542;-2.970;2022-12-18T09:34:12;9.23;;;5.13;;
77136;SDS011;66102;48.542;-2.970;2022-12-18T09:36:38;8.68;;;4.95;;
77136;SDS011;66102;48.542;-2.970;2022-12-18T09:39:04;10.13;;;4.80;;
77136;SDS011;66102;48.542;-2.970;2022-12-18T09:44:01;11.23;;;5.65;;
77136;SDS011;66102;48.542;-2.970;2022-12-18T09:46:30;9.60;;;5.53;;
77136;SDS011;66102;48.542;-2.970;2022-12-18T09:48:59;9.23;;;4.82;;
77136;SDS011;66102;48.542;-2.970;2022-12-18T09:51:32;8.70;;;4.60;;
77136;SDS011;66102;48.542;-2.970;2022-12-18T09:54:05;8.43;;;4.82;;
77136;SDS011;66102;48.542;-2.970;2022-12-18T09:56:35;8.80;;;5.35;;
77136;SDS011;66102;48.542;-2.970;2022-12-18T09:59:02;8.43;;;5.47;;
77136;SDS011;66102;48.542;-2.970;2022-12-18T10:01:28;10.23;;;5.68;;
77136;SDS011;66102;48.542;-2.970;2022-12-18T10:03:55;9.38;;;5.05;;
77136;SDS011;66102;48.542;-2.970;2022-12-18T10:13:52;10.75;;;5.50;;
77136;SDS011;66102;48.542;-2.970;2022-12-18T10:16:27;10.50;;;5.63;;
77136;SDS011;66102;48.542;-2.970;2022-12-18T10:21:40;10.68;;;5.35;;
77136;SDS011;66102;48.542;-2.970;2022-12-18T10:26:42;11.98;;;6.32;;
77136;SDS011;66102;48.542;-2.970;2022-12-18T10:29:12;11.50;;;6.05;;
77136;SDS011;66102;48.542;-2.970;2022-12-18T10:31:38;11.15;;;5.63;;
77136;SDS011;66102;48.542;-2.970;2022-12-18T10:34:09;11.05;;;6.55;;
77136;SDS011;66102;48.542;-2.970;2022-12-18T10:36:35;12.95;;;6.85;;
77136;SDS011;66102;48.542;-2.970;2022-12-18T10:39:15;13.25;;;6.88;;
77136;SDS011;66102;48.542;-2.970;2022-12-18T10:41:41;10.88;;;5.38;;
77136;SDS011;66102;48.542;-2.970;2022-12-18T10:44:11;13.15;;;6.68;;
77136;SDS011;66102;48.542;-2.970;2022-12-18T10:46:38;17.52;;;6.00;;
77136;SDS011;66102;48.542;-2.970;2022-12-18T10:49:04;11.00;;;6.32;;
77136;SDS011;66102;48.542;-2.970;2022-12-18T10:54:05;10.35;;;5.13;;
77136;SDS011;66102;48.542;-2.970;2022-12-18T10:56:34;12.35;;;7.25;;
77136;SDS011;66102;48.542;-2.970;2022-12-18T10:59:02;10.20;;;6.13;;
77136;SDS011;66102;48.542;-2.970;2022-12-18T11:01:45;11.07;;;6.43;;
77136;SDS011;66102;48.542;-2.970;2022-12-18T11:04:13;9.20;;;5.63;;
77136;SDS011;66102;48.542;-2.970;2022-12-18T11:07:00;12.38;;;6.43;;
77136;SDS011;66102;48.542;-2.970;2022-12-18T11:09:34;11.38;;;5.65;;
77136;SDS011;66102;48.542;-2.970;2022-12-18T11:12:02;10.98;;;5.45;;
77136;SDS011;66102;48.542;-2.970;2022-12-18T11:14:32;12.23;;;6.55;;
77136;SDS011;66102;48.542;-2.970;2022-12-18T11:16:59;13.40;;;6.90;;
77136;SDS011;66102;48.542;-2.970;2022-12-18T11:19:35;14.45;;;7.30;;
77136;SDS011;66102;48.542;-2.970;2022-12-18T11:22:24;14.57;;;7.35;;
77136;SDS011;66102;48.542;-2.970;2022-12-18T11:24:52;12.43;;;6.40;;
77136;SDS011;66102;48.542;-2.970;2022-12-18T11:27:19;14.65;;;8.18;;
77136;SDS011;66102;48.542;-2.970;2022-12-18T11:29:47;11.27;;;5.35;;
77136;SDS011;66102;48.542;-2.970;2022-12-18T11:34:42;15.35;;;7.38;;
77136;SDS011;66102;48.542;-2.970;2022-12-18T11:37:11;14.15;;;6.65;;
77136;SDS011;66102;48.542;-2.970;2022-12-18T11:39:42;12.82;;;6.22;;
77136;SDS011;66102;48.542;-2.970;2022-12-18T11:44:45;11.48;;;6.05;;
77136;SDS011;66102;48.542;-2.970;2022-12-18T11:50:00;9.40;;;5.68;;
77136;SDS011;66102;48.542;-2.970;2022-12-18T11:52:36;10.77;;;5.35;;
77136;SDS011;66102;48.542;-2.970;2022-12-18T11:55:11;11.88;;;7.07;;
77136;SDS011;66102;48.542;-2.970;2022-12-18T11:57:52;10.90;;;5.70;;
77136;SDS011;66102;48.542;-2.970;2022-12-18T12:00:21;13.02;;;6.25;;
77136;SDS011;66102;48.542;-2.970;2022-12-18T12:10:25;8.35;;;4.78;;
77136;SDS011;66102;48.542;-2.970;2022-12-18T12:18:33;7.65;;;4.28;;
77136;SDS011;66102;48.542;-2.970;2022-12-18T12:21:07;8.50;;;4.47;;
77136;SDS011;66102;48.542;-2.970;2022-12-18T12:28:57;8.98;;;4.55;;
77136;SDS011;66102;48.542;-2.970;2022-12-18T12:34:03;9.13;;;4.88;;
77136;SDS011;66102;48.542;-2.970;2022-12-18T12:39:00;7.03;;;3.92;;
77136;SDS011;66102;48.542;-2.970;2022-12-18T12:41:27;8.45;;;3.92;;
77136;SDS011;66102;48.542;-2.970;2022-12-18T12:44:19;7.50;;;3.72;;
77136;SDS011;66102;48.542;-2.970;2022-12-18T12:46:45;8.55;;;4.28;;
77136;SDS011;66102;48.542;-2.970;2022-12-18T12:49:14;7.18;;;3.88;;
77136;SDS011;66102;48.542;-2.970;2022-12-18T12:51:42;7.10;;;3.33;;
77136;SDS011;66102;48.542;-2.970;2022-12-18T12:54:14;7.57;;;3.78;;
77136;SDS011;66102;48.542;-2.970;2022-12-18T13:01:55;7.18;;;3.95;;
77136;SDS011;66102;48.542;-2.970;2022-12-18T13:04:31;6.40;;;3.03;;
77136;SDS011;66102;48.542;-2.970;2022-12-18T13:07:01;7.90;;;4.35;;
77136;SDS011;66102;48.542;-2.970;2022-12-18T13:09:30;7.15;;;3.63;;
77136;SDS011;66102;48.542;-2.970;2022-12-18T13:12:00;5.18;;;2.50;;
77136;SDS011;66102;48.542;-2.970;2022-12-18T13:14:46;6.13;;;3.22;;
77136;SDS011;66102;48.542;-2.970;2022-12-18T13:19:44;6.13;;;3.20;;
77136;SDS011;66102;48.542;-2.970;2022-12-18T13:22:21;6.53;;;3.67;;
77136;SDS011;66102;48.542;-2.970;2022-12-18T13:24:47;6.82;;;3.70;;
77136;SDS011;66102;48.542;-2.970;2022-12-18T13:29:58;6.63;;;3.13;;
77136;SDS011;66102;48.542;-2.970;2022-12-18T13:32:25;6.35;;;3.40;;
77136;SDS011;66102;48.542;-2.970;2022-12-18T13:37:43;7.70;;;4.13;;
77136;SDS011;66102;48.542;-2.970;2022-12-18T13:42:54;8.80;;;4.10;;
77136;SDS011;66102;48.542;-2.970;2022-12-18T13:45:42;6.80;;;3.45;;
77136;SDS011;66102;48.542;-2.970;2022-12-18T13:48:16;6.78;;;3.35;;
77136;SDS011;66102;48.542;-2.970;2022-12-18T13:50:43;7.32;;;4.25;;
77136;SDS011;66102;48.542;-2.970;2022-12-18T13:53:17;8.95;;;3.42;;
77136;SDS011;66102;48.542;-2.970;2022-12-18T13:55:46;6.85;;;3.20;;
77136;SDS011;66102;48.542;-2.970;2022-12-18T13:58:12;7.57;;;3.80;;
77136;SDS011;66102;48.542;-2.970;2022-12-18T14:00:41;8.73;;;4.22;;
77136;SDS011;66102;48.542;-2.970;2022-12-18T14:03:18;9.70;;;4.57;;
77136;SDS011;66102;48.542;-2.970;2022-12-18T14:05:45;8.90;;;4.53;;
77136;SDS011;66102;48.542;-2.970;2022-12-18T14:08:14;9.30;;;4.07;;
77136;SDS011;66102;48.542;-2.970;2022-12-18T14:10:41;8.43;;;3.90;;
77136;SDS011;66102;48.542;-2.970;2022-12-18T14:13:08;6.53;;;3.08;;
77136;SDS011;66102;48.542;-2.970;2022-12-18T14:15:41;8.48;;;3.90;;
77136;SDS011;66102;48.542;-2.970;2022-12-18T14:20:41;5.75;;;3.13;;
77136;SDS011;66102;48.542;-2.970;2022-12-18T14:25:53;6.78;;;3.47;;
77136;SDS011;66102;48.542;-2.970;2022-12-18T14:28:19;7.38;;;3.30;;
77136;SDS011;66102;48.542;-2.970;2022-12-18T14:30:47;6.00;;;2.63;;
77136;SDS011;66102;48.542;-2.970;2022-12-18T14:33:14;4.82;;;2.30;;
77136;SDS011;66102;48.542;-2.970;2022-12-18T14:35:41;6.20;;;2.45;;
77136;SDS011;66102;48.542;-2.970;2022-12-18T14:38:24;5.88;;;2.40;;
77136;SDS011;66102;48.542;-2.970;2022-12-18T14:41:01;5.35;;;2.33;;
77136;SDS011;66102;48.542;-2.970;2022-12-18T14:43:28;6.40;;;2.28;;
77136;SDS011;66102;48.542;-2.970;2022-12-18T14:45:55;4.38;;;1.85;;
77136;SDS011;66102;48.542;-2.970;2022-12-18T14:48:33;5.30;;;2.03;;
77136;SDS011;66102;48.542;-2.970;2022-12-18T14:51:01;5.50;;;2.65;;
77136;SDS011;66102;48.542;-2.970;2022-12-18T14:53:32;5.50;;;1.88;;
77136;SDS011;66102;48.542;-2.970;2022-12-18T14:55:59;5.05;;;2.20;;
77136;SDS011;66102;48.542;-2.970;2022-12-18T14:58:25;4.35;;;2.20;;
77136;SDS011;66102;48.542;-2.970;2022-12-18T15:00:51;5.20;;;2.08;;
77136;SDS011;66102;48.542;-2.970;2022-12-18T15:03:18;5.82;;;2.35;;
77136;SDS011;66102;48.542;-2.970;2022-12-18T15:05:45;5.40;;;2.22;;
77136;SDS011;66102;48.542;-2.970;2022-12-18T15:08:27;5.38;;;2.38;;
77136;SDS011;66102;48.542;-2.970;2022-12-18T15:10:53;6.78;;;2.20;;
77136;SDS011;66102;48.542;-2.970;2022-12-18T15:13:22;7.68;;;2.80;;
77136;SDS011;66102;48.542;-2.970;2022-12-18T15:15:49;5.05;;;2.40;;
77136;SDS011;66102;48.542;-2.970;2022-12-18T15:18:16;7.93;;;2.22;;
77136;SDS011;66102;48.542;-2.970;2022-12-18T15:20:46;5.38;;;2.15;;
77136;SDS011;66102;48.542;-2.970;2022-12-18T15:23:20;6.00;;;2.25;;
77136;SDS011;66102;48.542;-2.970;2022-12-18T15:26:08;5.20;;;2.30;;
77136;SDS011;66102;48.542;-2.970;2022-12-18T15:28:39;6.32;;;2.20;;
77136;SDS011;66102;48.542;-2.970;2022-12-18T15:33:37;5.90;;;2.85;;
77136;SDS011;66102;48.542;-2.970;2022-12-18T15:36:04;4.70;;;2.33;;
77136;SDS011;66102;48.542;-2.970;2022-12-18T15:38:30;4.57;;;2.00;;
77136;SDS011;66102;48.542;-2.970;2022-12-18T15:40:57;6.63;;;2.00;;
77136;SDS011;66102;48.542;-2.970;2022-12-18T15:43:23;4.40;;;1.60;;
77136;SDS011;66102;48.542;-2.970;2022-12-18T15:46:06;4.72;;;2.13;;
77136;SDS011;66102;48.542;-2.970;2022-12-18T15:48:33;5.93;;;1.70;;
77136;SDS011;66102;48.542;-2.970;2022-12-18T15:51:00;3.22;;;1.33;;
77136;SDS011;66102;48.542;-2.970;2022-12-18T15:53:30;4.38;;;1.70;;
77136;SDS011;66102;48.542;-2.970;2022-12-18T15:55:57;5.00;;;1.50;;
77136;SDS011;66102;48.542;-2.970;2022-12-18T15:58:41;4.63;;;1.65;;
77136;SDS011;66102;48.542;-2.970;2022-12-18T16:01:08;3.33;;;1.27;;
77136;SDS011;66102;48.542;-2.970;2022-12-18T16:03:35;4.10;;;1.50;;
77136;SDS011;66102;48.542;-2.970;2022-12-18T16:06:01;3.53;;;1.25;;
77136;SDS011;66102;48.542;-2.970;2022-12-18T16:08:30;4.72;;;1.40;;
77136;SDS011;66102;48.542;-2.970;2022-12-18T16:10:56;4.90;;;1.65;;
77136;SDS011;66102;48.542;-2.970;2022-12-18T16:13:23;3.88;;;1.30;;
77136;SDS011;66102;48.542;-2.970;2022-12-18T16:15:49;2.92;;;1.17;;
77136;SDS011;66102;48.542;-2.970;2022-12-18T16:18:15;3.45;;;1.42;;
77136;SDS011;66102;48.542;-2.970;2022-12-18T16:20:41;2.90;;;1.00;;
77136;SDS011;66102;48.542;-2.970;2022-12-18T16:23:07;2.28;;;0.90;;
77136;SDS011;66102;48.542;-2.970;2022-12-18T16:25:33;2.55;;;1.00;;
77136;SDS011;66102;48.542;-2.970;2022-12-18T16:27:59;3.63;;;1.40;;
77136;SDS011;66102;48.542;-2.970;2022-12-18T16:30:27;4.50;;;1.40;;
77136;SDS011;66102;48.542;-2.970;2022-12-18T16:32:55;2.22;;;1.00;;
77136;SDS011;66102;48.542;-2.970;2022-12-18T16:35:21;4.32;;;1.42;;
77136;SDS011;66102;48.542;-2.970;2022-12-18T16:37:48;2.55;;;1.05;;
77136;SDS011;66102;48.542;-2.970;2022-12-18T16:40:14;4.00;;;1.27;;
77136;SDS011;66102;48.542;-2.970;2022-12-18T16:42:42;2.08;;;0.82;;
77136;SDS011;66102;48.542;-2.970;2022-12-18T16:45:09;3.45;;;1.33;;
77136;SDS011;66102;48.542;-2.970;2022-12-18T16:47:35;3.30;;;1.27;;
77136;SDS011;66102;48.542;-2.970;2022-12-18T16:50:01;2.90;;;1.20;;
77136;SDS011;66102;48.542;-2.970;2022-12-18T16:52:28;3.53;;;1.30;;
77136;SDS011;66102;48.542;-2.970;2022-12-18T16:54:54;3.33;;;1.30;;
77136;SDS011;66102;48.542;-2.970;2022-12-18T16:57:20;3.63;;;1.20;;
77136;SDS011;66102;48.542;-2.970;2022-12-18T16:59:47;3.28;;;1.30;;
77136;SDS011;66102;48.542;-2.970;2022-12-18T17:02:13;4.00;;;1.50;;
77136;SDS011;66102;48.542;-2.970;2022-12-18T17:04:40;3.78;;;1.50;;
77136;SDS011;66102;48.542;-2.970;2022-12-18T17:07:06;6.80;;;1.50;;
77136;SDS011;66102;48.542;-2.970;2022-12-18T17:09:32;4.60;;;1.48;;
77136;SDS011;66102;48.542;-2.970;2022-12-18T17:11:58;3.35;;;1.25;;
77136;SDS011;66102;48.542;-2.970;2022-12-18T17:14:25;3.30;;;1.15;;
77136;SDS011;66102;48.542;-2.970;2022-12-18T17:16:51;3.83;;;1.50;;
77136;SDS011;66102;48.542;-2.970;2022-12-18T17:19:18;4.15;;;1.63;;
77136;SDS011;66102;48.542;-2.970;2022-12-18T17:21:46;7.28;;;1.55;;
77136;SDS011;66102;48.542;-2.970;2022-12-18T17:24:12;3.60;;;1.30;;
77136;SDS011;66102;48.542;-2.970;2022-12-18T17:26:38;6.75;;;1.67;;
77136;SDS011;66102;48.542;-2.970;2022-12-18T17:29:04;5.72;;;1.92;;
77136;SDS011;66102;48.542;-2.970;2022-12-18T17:31:31;3.40;;;1.40;;
77136;SDS011;66102;48.542;-2.970;2022-12-18T17:33:57;4.47;;;1.40;;
77136;SDS011;66102;48.542;-2.970;2022-12-18T17:36:24;4.40;;;1.60;;
77136;SDS011;66102;48.542;-2.970;2022-12-18T17:38:56;7.43;;;1.90;;
77136;SDS011;66102;48.542;-2.970;2022-12-18T17:41:23;6.20;;;1.92;;
77136;SDS011;66102;48.542;-2.970;2022-12-18T17:43:58;5.15;;;2.22;;
77136;SDS011;66102;48.542;-2.970;2022-12-18T17:46:26;6.80;;;1.80;;